Polar Discovery — WACW — position and weather

sailwx.info

Track history (hours):
 
Tides and Currents Weather Stations Pressure Air Temp Water Temp Dewpoint Dewpoint Depression Visibility Wind Speed Wind Dir Waves Ship Positions

Polar Discovery

Owner: Polar Tankers, Inc., Bartlesville, OK. More information available from US FCC via Universal Licensing System and Coast Guard Vessel Documentation Center.

Last reported at 2017-Oct-17 21:00 UTC. Time now 2017-Oct-18 04:07 UTC.
Position N 53°12' W 138°30'.

Type: Tanker. MMSI: 369272000.

Wind from 180 at 34 knots

Barometer 1003.3 mb
Air temperature 9.8 ° C
Visibility: greater than 10.8 NM
Dewpoint 5.7 ° C
Water temperature 12.0 ° C

Date/timePositionNaut miles runAvg speedWind from/ knotsBaromVisibWave heightAir tempDewpointWater temp
2017-Oct-17 21:00N 53°12' W 138°30'34614.4 180 / 341003.310.8 9.8 5.712.0
2017-Oct-16 21:00N 49°00' W 132°12'34614.4 230 / 271010.1 5.4 14.813.214.0
2017-Oct-15 21:00N 44°06' W 127°48'31213.0 030 / 161025.910.8 19.218.916.0
2017-Oct-14 21:00N 39°18' W 125°06'3714.3 350 / 201020.010.8 16.215.713.0
2017-Oct-14 18:25N 38°45' W 124°44'613.4
2017-Oct-14 18:00N 38°41' W 124°40'713.8
2017-Oct-14 17:30N 38°36' W 124°34'713.8
2017-Oct-14 17:00N 38°30' W 124°28'713.9
2017-Oct-14 16:30N 38°25' W 124°23'714.0
2017-Oct-14 16:00N 38°20' W 124°17'714.1
2017-Oct-14 15:30N 38°14' W 124°11'714.5
2017-Oct-14 15:00N 38°09' W 124°05'714.5
2017-Oct-14 14:30N 38°03' W 123°59'714.9
2017-Oct-14 14:00N 37°58' W 123°53'714.8
2017-Oct-14 13:30N 37°52' W 123°47'714.6
2017-Oct-14 13:00N 37°46' W 123°41'714.3
2017-Oct-14 12:30N 37°41' W 123°35'714.8
2017-Oct-14 12:01N 37°39' W 123°26'714.8
2017-Oct-14 11:30N 37°36' W 123°17'815.1
2017-Oct-14 11:00N 37°35' W 123°08'510.3
2017-Oct-14 10:30N 37°35' W 123°02'5 9.7
2017-Oct-14 10:00N 37°38' W 122°56'5 9.9
2017-Oct-14 09:30N 37°41' W 122°51'510.1
2017-Oct-14 09:00N 37°44' W 122°46'612.1
2017-Oct-14 08:30N 37°46' W 122°39'816.5
2017-Oct-14 08:01N 37°49' W 122°29'510.5
2017-Oct-14 07:30N 37°54' W 122°26'714.8
2017-Oct-14 07:00N 38°01' W 122°24'510.5
2017-Oct-14 06:30N 38°03' W 122°18'612.4
2017-Oct-14 06:00N 38°02' W 122°10'2 0.1
2017-Oct-13 13:54N 38°03' W 122°08'0 1.0
2017-Oct-13 13:27N 38°02' W 122°08'2 4.8
2017-Oct-13 13:00N 38°03' W 122°11'510.7
2017-Oct-13 12:30N 38°03' W 122°17'5 9.3
2017-Oct-13 12:01N 38°02' W 122°23'713.1
2017-Oct-13 11:31N 37°56' W 122°27'1 2.7
2017-Oct-13 11:00N 37°55' W 122°25'1 1.7
2017-Oct-13 10:30N 37°56' W 122°25'0 0.0
2017-Oct-13 09:51N 37°56' W 122°25'0 0.0
2017-Oct-13 09:27N 37°56' W 122°25'0 0.0
2017-Oct-13 08:57N 37°56' W 122°25'0 0.0
2017-Oct-13 08:30N 37°56' W 122°25'0 0.0
2017-Oct-13 08:00N 37°56' W 122°25'0 0.0
2017-Oct-13 07:30N 37°56' W 122°25'0 0.0
2017-Oct-13 07:00N 37°56' W 122°25'0 0.0
2017-Oct-13 06:21N 37°56' W 122°25'0 0.0
2017-Oct-13 05:54N 37°56' W 122°25'0 0.0
2017-Oct-13 05:30N 37°56' W 122°25'0 0.0
2017-Oct-13 04:57N 37°56' W 122°25'0 0.0
2017-Oct-13 04:24N 37°56' W 122°25'0 0.0
2017-Oct-13 04:00N 37°56' W 122°25'0 0.0
2017-Oct-13 03:27N 37°56' W 122°25'0 0.0
2017-Oct-13 03:00N 37°56' W 122°25'0 0.0
2017-Oct-13 02:24N 37°56' W 122°25'0 0.0
2017-Oct-13 02:00N 37°56' W 122°25'0 0.0
2017-Oct-13 01:21N 37°56' W 122°25'0 0.0
2017-Oct-13 01:00N 37°56' W 122°25'0 0.0
2017-Oct-13 00:21N 37°56' W 122°25'0 0.0
2017-Oct-13 00:00N 37°56' W 122°25'0 0.0
2017-Oct-12 23:30N 37°56' W 122°25'0 0.0
2017-Oct-12 22:57N 37°56' W 122°25'0 0.0
2017-Oct-12 22:18N 37°56' W 122°25'0 0.0
2017-Oct-12 22:00N 37°56' W 122°25'0 0.0
2017-Oct-12 21:30N 37°56' W 122°25'0 0.0
2017-Oct-12 20:54N 37°56' W 122°25'0 0.0
2017-Oct-12 20:30N 37°56' W 122°25'0 0.0
2017-Oct-12 20:00N 37°56' W 122°25'0 0.0
2017-Oct-12 19:27N 37°56' W 122°25'0 0.0
2017-Oct-12 19:00N 37°56' W 122°25'0 0.0
2017-Oct-12 18:30N 37°56' W 122°25'0 0.0
2017-Oct-12 17:57N 37°56' W 122°25'0 0.0
2017-Oct-12 17:30N 37°56' W 122°25'0 0.0
2017-Oct-12 17:00N 37°56' W 122°25'0 0.0
2017-Oct-12 16:30N 37°56' W 122°25'0 0.0
2017-Oct-12 16:00N 37°56' W 122°25'0 0.0
2017-Oct-12 15:30N 37°56' W 122°25'0 0.0
2017-Oct-12 15:00N 37°56' W 122°25'0 0.0
2017-Oct-12 14:30N 37°56' W 122°25'0 0.0
2017-Oct-12 14:00N 37°56' W 122°25'0 0.4
2017-Oct-12 13:31N 37°55' W 122°25'3 6.6
2017-Oct-12 13:01N 37°52' W 122°25'611.7
2017-Oct-12 12:30N 37°48' W 122°30'714.3
2017-Oct-12 12:01N 37°46' W 122°39'4 7.9
2017-Oct-12 11:31N 37°43' W 122°43'4 7.2
2017-Oct-12 11:01N 37°41' W 122°46'5 9.4
2017-Oct-12 10:31N 37°38' W 122°51'5 9.3
2017-Oct-12 10:01N 37°36' W 122°56'5 9.3
2017-Oct-12 09:31N 37°33' W 123°01'5 9.4
2017-Oct-12 09:00N 37°33' W 123°07'612.8
2017-Oct-12 08:30N 37°35' W 123°14'612.9
2017-Oct-12 08:01N 37°37' W 123°22'612.7
2017-Oct-12 07:31N 37°39' W 123°30'612.5
2017-Oct-12 07:00N 37°41' W 123°37'712.4
2017-Oct-12 06:28N 37°43' W 123°45'612.3
2017-Oct-12 06:00N 37°45' W 123°52'612.4
2017-Oct-12 05:30N 37°47' W 123°60'3711.6
2017-Oct-12 02:18N 38°15' W 124°30'412.4
2017-Oct-12 02:00N 38°19' W 124°32'613.0
2017-Oct-12 01:30N 38°24' W 124°36'58611.7
2017-Oct-09 23:21N 48°09' W 125°34'614.1
2017-Oct-09 22:57N 48°12' W 125°28'713.7
2017-Oct-09 22:28N 48°17' W 125°21'714.5
2017-Oct-09 22:00N 48°22' W 125°14'714.6
2017-Oct-09 21:30N 48°27' W 125°06'713.2
2017-Oct-09 21:00N 48°31' W 124°57'815.4
2017-Oct-09 20:30N 48°31' W 124°46'815.6
2017-Oct-09 20:00N 48°28' W 124°35'816.0
2017-Oct-09 19:30N 48°25' W 124°24'816.0
2017-Oct-09 19:00N 48°22' W 124°13'816.3
2017-Oct-09 18:30N 48°18' W 124°01'816.4
2017-Oct-09 18:00N 48°17' W 123°49'816.0
2017-Oct-09 17:30N 48°15' W 123°37'713.9
2017-Oct-09 17:00N 48°13' W 123°27'611.5
2017-Oct-09 16:30N 48°09' W 123°23'2 4.3
2017-Oct-09 16:00N 48°08' W 123°26'0 0.0
2017-Oct-09 15:19N 48°08' W 123°26'0 0.1
2017-Oct-09 14:58N 48°08' W 123°26'0 0.0
2017-Oct-09 14:28N 48°08' W 123°26'0 0.0
2017-Oct-09 13:28N 48°08' W 123°26'0 0.0
2017-Oct-09 12:58N 48°08' W 123°26'0 0.1
2017-Oct-09 12:22N 48°08' W 123°26'0 0.1
2017-Oct-09 11:55N 48°08' W 123°26'0 0.1
2017-Oct-09 11:25N 48°08' W 123°26'0 0.1
2017-Oct-09 10:58N 48°08' W 123°26'0 0.0
2017-Oct-09 10:28N 48°08' W 123°26'0 0.0
2017-Oct-09 09:58N 48°08' W 123°26'0 0.0
2017-Oct-09 09:28N 48°08' W 123°26'0 0.0
2017-Oct-09 08:58N 48°08' W 123°26'0 0.1
2017-Oct-09 08:22N 48°08' W 123°26'0 0.0
2017-Oct-09 07:52N 48°08' W 123°26'0 0.0
2017-Oct-09 07:28N 48°08' W 123°26'0 0.2
2017-Oct-09 06:58N 48°08' W 123°26'0 0.1
2017-Oct-09 06:28N 48°08' W 123°26'0 0.1
2017-Oct-09 05:58N 48°08' W 123°26'0 0.1
2017-Oct-09 05:19N 48°08' W 123°26'0 0.1
2017-Oct-09 04:19N 48°08' W 123°26'0 0.0
2017-Oct-09 03:16N 48°08' W 123°26'0 0.0
2017-Oct-09 02:55N 48°08' W 123°26'0 0.1
2017-Oct-09 02:22N 48°08' W 123°26'0 0.0
2017-Oct-09 01:58N 48°08' W 123°26'0 0.1
2017-Oct-09 01:19N 48°08' W 123°26'0 0.1
2017-Oct-09 00:55N 48°08' W 123°26'0 0.0
2017-Oct-09 00:28N 48°08' W 123°26'0 0.1
2017-Oct-08 23:58N 48°08' W 123°26'0 0.1
2017-Oct-08 23:19N 48°08' W 123°26'0 0.3
2017-Oct-08 22:58N 48°08' W 123°26'0 0.9
2017-Oct-08 22:30N 48°08' W 123°25'3 5.9
2017-Oct-08 22:01N 48°08' W 123°21'612.3
2017-Oct-08 21:29N 48°12' W 123°13'713.7
2017-Oct-08 21:00N 48°17' W 123°06'713.6
2017-Oct-08 20:30N 48°21' W 122°57'713.9
2017-Oct-08 20:00N 48°24' W 122°48'612.7
2017-Oct-08 19:30N 48°30' W 122°44'612.7
2017-Oct-08 19:00N 48°36' W 122°45'612.1
2017-Oct-08 18:30N 48°42' W 122°44'612.6
2017-Oct-08 18:00N 48°49' W 122°44'1 0.1
2017-Oct-08 03:42N 48°50' W 122°43'0 0.1
2017-Oct-08 03:30N 48°50' W 122°43'1 2.8
2017-Oct-08 03:00N 48°48' W 122°44'4 8.1
2017-Oct-08 02:30N 48°44' W 122°45'611.0
2017-Oct-08 02:00N 48°39' W 122°43'510.4
2017-Oct-08 01:30N 48°34' W 122°45'510.6
2017-Oct-08 01:00N 48°28' W 122°45'611.6
2017-Oct-08 00:30N 48°23' W 122°49'713.8
2017-Oct-08 00:00N 48°20' W 122°58'814.9
2017-Oct-07 23:29N 48°16' W 123°08'715.2
2017-Oct-07 23:00N 48°12' W 123°17'611.4
2017-Oct-07 22:30N 48°10' W 123°25'713.5
2017-Oct-07 21:58N 48°13' W 123°35'714.8
2017-Oct-07 21:30N 48°13' W 123°46'612.7
2017-Oct-07 21:00N 48°13' W 123°55'  
Track history (hours):
 
Tides and Currents Weather Stations Pressure Air Temp Water Temp Dewpoint Dewpoint Depression Visibility Wind Speed Wind Dir Waves Ship Positions

Polar Discovery

Owner: Polar Tankers, Inc., Bartlesville, OK. More information available from US FCC via Universal Licensing System and Coast Guard Vessel Documentation Center.

Last reported at 2017-Oct-17 21:00 UTC. Time now 2017-Oct-18 04:07 UTC.
Position N 53°12' W 138°30'.

Type: Tanker. MMSI: 369272000.

Wind from 180 at 34 knots

Barometer 1003.3 mb
Air temperature 9.8 ° C
Visibility: greater than 10.8 NM
Dewpoint 5.7 ° C
Water temperature 12.0 ° C

Date/timePositionNaut miles runAvg speedWind from/ knotsBaromVisibWave heightAir tempDewpointWater temp
2017-Oct-17 21:00N 53°12' W 138°30'34614.4 180 / 341003.310.8 9.8 5.712.0
2017-Oct-16 21:00N 49°00' W 132°12'34614.4 230 / 271010.1 5.4 14.813.214.0
2017-Oct-15 21:00N 44°06' W 127°48'31213.0 030 / 161025.910.8 19.218.916.0
2017-Oct-14 21:00N 39°18' W 125°06'3714.3 350 / 201020.010.8 16.215.713.0
2017-Oct-14 18:25N 38°45' W 124°44'613.4
2017-Oct-14 18:00N 38°41' W 124°40'713.8
2017-Oct-14 17:30N 38°36' W 124°34'713.8
2017-Oct-14 17:00N 38°30' W 124°28'713.9
2017-Oct-14 16:30N 38°25' W 124°23'714.0
2017-Oct-14 16:00N 38°20' W 124°17'714.1
2017-Oct-14 15:30N 38°14' W 124°11'714.5
2017-Oct-14 15:00N 38°09' W 124°05'714.5
2017-Oct-14 14:30N 38°03' W 123°59'714.9
2017-Oct-14 14:00N 37°58' W 123°53'714.8
2017-Oct-14 13:30N 37°52' W 123°47'714.6
2017-Oct-14 13:00N 37°46' W 123°41'714.3
2017-Oct-14 12:30N 37°41' W 123°35'714.8
2017-Oct-14 12:01N 37°39' W 123°26'714.8
2017-Oct-14 11:30N 37°36' W 123°17'815.1
2017-Oct-14 11:00N 37°35' W 123°08'510.3
2017-Oct-14 10:30N 37°35' W 123°02'5 9.7
2017-Oct-14 10:00N 37°38' W 122°56'5 9.9
2017-Oct-14 09:30N 37°41' W 122°51'510.1
2017-Oct-14 09:00N 37°44' W 122°46'612.1
2017-Oct-14 08:30N 37°46' W 122°39'816.5
2017-Oct-14 08:01N 37°49' W 122°29'510.5
2017-Oct-14 07:30N 37°54' W 122°26'714.8
2017-Oct-14 07:00N 38°01' W 122°24'510.5
2017-Oct-14 06:30N 38°03' W 122°18'612.4
2017-Oct-14 06:00N 38°02' W 122°10'2 0.1
2017-Oct-13 13:54N 38°03' W 122°08'0 1.0
2017-Oct-13 13:27N 38°02' W 122°08'2 4.8
2017-Oct-13 13:00N 38°03' W 122°11'510.7
2017-Oct-13 12:30N 38°03' W 122°17'5 9.3
2017-Oct-13 12:01N 38°02' W 122°23'713.1
2017-Oct-13 11:31N 37°56' W 122°27'1 2.7
2017-Oct-13 11:00N 37°55' W 122°25'1 1.7
2017-Oct-13 10:30N 37°56' W 122°25'0 0.0
2017-Oct-13 09:51N 37°56' W 122°25'0 0.0
2017-Oct-13 09:27N 37°56' W 122°25'0 0.0
2017-Oct-13 08:57N 37°56' W 122°25'0 0.0
2017-Oct-13 08:30N 37°56' W 122°25'0 0.0
2017-Oct-13 08:00N 37°56' W 122°25'0 0.0
2017-Oct-13 07:30N 37°56' W 122°25'0 0.0
2017-Oct-13 07:00N 37°56' W 122°25'0 0.0
2017-Oct-13 06:21N 37°56' W 122°25'0 0.0
2017-Oct-13 05:54N 37°56' W 122°25'0 0.0
2017-Oct-13 05:30N 37°56' W 122°25'0 0.0
2017-Oct-13 04:57N 37°56' W 122°25'0 0.0
2017-Oct-13 04:24N 37°56' W 122°25'0 0.0
2017-Oct-13 04:00N 37°56' W 122°25'0 0.0
2017-Oct-13 03:27N 37°56' W 122°25'0 0.0
2017-Oct-13 03:00N 37°56' W 122°25'0 0.0
2017-Oct-13 02:24N 37°56' W 122°25'0 0.0
2017-Oct-13 02:00N 37°56' W 122°25'0 0.0
2017-Oct-13 01:21N 37°56' W 122°25'0 0.0
2017-Oct-13 01:00N 37°56' W 122°25'0 0.0
2017-Oct-13 00:21N 37°56' W 122°25'0 0.0
2017-Oct-13 00:00N 37°56' W 122°25'0 0.0
2017-Oct-12 23:30N 37°56' W 122°25'0 0.0
2017-Oct-12 22:57N 37°56' W 122°25'0 0.0
2017-Oct-12 22:18N 37°56' W 122°25'0 0.0
2017-Oct-12 22:00N 37°56' W 122°25'0 0.0
2017-Oct-12 21:30N 37°56' W 122°25'0 0.0
2017-Oct-12 20:54N 37°56' W 122°25'0 0.0
2017-Oct-12 20:30N 37°56' W 122°25'0 0.0
2017-Oct-12 20:00N 37°56' W 122°25'0 0.0
2017-Oct-12 19:27N 37°56' W 122°25'0 0.0
2017-Oct-12 19:00N 37°56' W 122°25'0 0.0
2017-Oct-12 18:30N 37°56' W 122°25'0 0.0
2017-Oct-12 17:57N 37°56' W 122°25'0 0.0
2017-Oct-12 17:30N 37°56' W 122°25'0 0.0
2017-Oct-12 17:00N 37°56' W 122°25'0 0.0
2017-Oct-12 16:30N 37°56' W 122°25'0 0.0
2017-Oct-12 16:00N 37°56' W 122°25'0 0.0
2017-Oct-12 15:30N 37°56' W 122°25'0 0.0
2017-Oct-12 15:00N 37°56' W 122°25'0 0.0
2017-Oct-12 14:30N 37°56' W 122°25'0 0.0
2017-Oct-12 14:00N 37°56' W 122°25'0 0.4
2017-Oct-12 13:31N 37°55' W 122°25'3 6.6
2017-Oct-12 13:01N 37°52' W 122°25'611.7
2017-Oct-12 12:30N 37°48' W 122°30'714.3
2017-Oct-12 12:01N 37°46' W 122°39'4 7.9
2017-Oct-12 11:31N 37°43' W 122°43'4 7.2
2017-Oct-12 11:01N 37°41' W 122°46'5 9.4
2017-Oct-12 10:31N 37°38' W 122°51'5 9.3
2017-Oct-12 10:01N 37°36' W 122°56'5 9.3
2017-Oct-12 09:31N 37°33' W 123°01'5 9.4
2017-Oct-12 09:00N 37°33' W 123°07'612.8
2017-Oct-12 08:30N 37°35' W 123°14'612.9
2017-Oct-12 08:01N 37°37' W 123°22'612.7
2017-Oct-12 07:31N 37°39' W 123°30'612.5
2017-Oct-12 07:00N 37°41' W 123°37'712.4
2017-Oct-12 06:28N 37°43' W 123°45'612.3
2017-Oct-12 06:00N 37°45' W 123°52'612.4
2017-Oct-12 05:30N 37°47' W 123°60'3711.6
2017-Oct-12 02:18N 38°15' W 124°30'412.4
2017-Oct-12 02:00N 38°19' W 124°32'613.0
2017-Oct-12 01:30N 38°24' W 124°36'58611.7
2017-Oct-09 23:21N 48°09' W 125°34'614.1
2017-Oct-09 22:57N 48°12' W 125°28'713.7
2017-Oct-09 22:28N 48°17' W 125°21'714.5
2017-Oct-09 22:00N 48°22' W 125°14'714.6
2017-Oct-09 21:30N 48°27' W 125°06'713.2
2017-Oct-09 21:00N 48°31' W 124°57'815.4
2017-Oct-09 20:30N 48°31' W 124°46'815.6
2017-Oct-09 20:00N 48°28' W 124°35'816.0
2017-Oct-09 19:30N 48°25' W 124°24'816.0
2017-Oct-09 19:00N 48°22' W 124°13'816.3
2017-Oct-09 18:30N 48°18' W 124°01'816.4
2017-Oct-09 18:00N 48°17' W 123°49'816.0
2017-Oct-09 17:30N 48°15' W 123°37'713.9
2017-Oct-09 17:00N 48°13' W 123°27'611.5
2017-Oct-09 16:30N 48°09' W 123°23'2 4.3
2017-Oct-09 16:00N 48°08' W 123°26'0 0.0
2017-Oct-09 15:19N 48°08' W 123°26'0 0.1
2017-Oct-09 14:58N 48°08' W 123°26'0 0.0
2017-Oct-09 14:28N 48°08' W 123°26'0 0.0
2017-Oct-09 13:28N 48°08' W 123°26'0 0.0
2017-Oct-09 12:58N 48°08' W 123°26'0 0.1
2017-Oct-09 12:22N 48°08' W 123°26'0 0.1
2017-Oct-09 11:55N 48°08' W 123°26'0 0.1
2017-Oct-09 11:25N 48°08' W 123°26'0 0.1
2017-Oct-09 10:58N 48°08' W 123°26'0 0.0
2017-Oct-09 10:28N 48°08' W 123°26'0 0.0
2017-Oct-09 09:58N 48°08' W 123°26'0 0.0
2017-Oct-09 09:28N 48°08' W 123°26'0 0.0
2017-Oct-09 08:58N 48°08' W 123°26'0 0.1
2017-Oct-09 08:22N 48°08' W 123°26'0 0.0
2017-Oct-09 07:52N 48°08' W 123°26'0 0.0
2017-Oct-09 07:28N 48°08' W 123°26'0 0.2
2017-Oct-09 06:58N 48°08' W 123°26'0 0.1
2017-Oct-09 06:28N 48°08' W 123°26'0 0.1
2017-Oct-09 05:58N 48°08' W 123°26'0 0.1
2017-Oct-09 05:19N 48°08' W 123°26'0 0.1
2017-Oct-09 04:19N 48°08' W 123°26'0 0.0
2017-Oct-09 03:16N 48°08' W 123°26'0 0.0
2017-Oct-09 02:55N 48°08' W 123°26'0 0.1
2017-Oct-09 02:22N 48°08' W 123°26'0 0.0
2017-Oct-09 01:58N 48°08' W 123°26'0 0.1
2017-Oct-09 01:19N 48°08' W 123°26'0 0.1
2017-Oct-09 00:55N 48°08' W 123°26'0 0.0
2017-Oct-09 00:28N 48°08' W 123°26'0 0.1
2017-Oct-08 23:58N 48°08' W 123°26'0 0.1
2017-Oct-08 23:19N 48°08' W 123°26'0 0.3
2017-Oct-08 22:58N 48°08' W 123°26'0 0.9
2017-Oct-08 22:30N 48°08' W 123°25'3 5.9
2017-Oct-08 22:01N 48°08' W 123°21'612.3
2017-Oct-08 21:29N 48°12' W 123°13'713.7
2017-Oct-08 21:00N 48°17' W 123°06'713.6
2017-Oct-08 20:30N 48°21' W 122°57'713.9
2017-Oct-08 20:00N 48°24' W 122°48'612.7
2017-Oct-08 19:30N 48°30' W 122°44'612.7
2017-Oct-08 19:00N 48°36' W 122°45'612.1
2017-Oct-08 18:30N 48°42' W 122°44'612.6
2017-Oct-08 18:00N 48°49' W 122°44'1 0.1
2017-Oct-08 03:42N 48°50' W 122°43'0 0.1
2017-Oct-08 03:30N 48°50' W 122°43'1 2.8
2017-Oct-08 03:00N 48°48' W 122°44'4 8.1
2017-Oct-08 02:30N 48°44' W 122°45'611.0
2017-Oct-08 02:00N 48°39' W 122°43'510.4
2017-Oct-08 01:30N 48°34' W 122°45'510.6
2017-Oct-08 01:00N 48°28' W 122°45'611.6
2017-Oct-08 00:30N 48°23' W 122°49'713.8
2017-Oct-08 00:00N 48°20' W 122°58'814.9
2017-Oct-07 23:29N 48°16' W 123°08'715.2
2017-Oct-07 23:00N 48°12' W 123°17'611.4
2017-Oct-07 22:30N 48°10' W 123°25'713.5
2017-Oct-07 21:58N 48°13' W 123°35'714.8
2017-Oct-07 21:30N 48°13' W 123°46'612.7
2017-Oct-07 21:00N 48°13' W 123°55'  

Dump ship's entire track history